createdAt,value
2022-12-29T00:16:03.693Z,11.75
2022-12-29T01:00:52.522Z,11.57
2022-12-29T01:30:44.802Z,12.07
2022-12-29T01:45:41.256Z,12.29
2022-12-29T02:00:37.386Z,12.48
2022-12-29T02:15:33.199Z,12.62
2022-12-29T02:30:29.400Z,12.45
2022-12-29T02:45:25.271Z,12.18
2022-12-29T03:00:21.774Z,12.02
2022-12-29T03:30:13.271Z,12.24
2022-12-29T04:00:05.538Z,12.37
2022-12-29T04:29:57.738Z,12.33
2022-12-29T04:44:53.825Z,12.32
2022-12-29T05:14:46.575Z,12.16
2022-12-29T05:29:42.407Z,11.53
2022-12-29T05:44:38.356Z,11.72
2022-12-29T05:59:34.817Z,11.71
2022-12-29T06:29:26.979Z,11.01
2022-12-29T06:44:23.093Z,10.7
2022-12-29T06:59:19.090Z,10.82
2022-12-29T07:01:33.445Z,10.81
2022-12-29T07:16:28.477Z,10.9
2022-12-29T07:31:31.914Z,11.02
2022-12-29T07:46:54.823Z,11
2022-12-29T08:01:17.272Z,11.34
2022-12-29T08:16:13.138Z,11.18
2022-12-29T08:31:09.625Z,11.27
2022-12-29T08:46:05.909Z,11.31
2022-12-29T09:01:02.060Z,11.18
2022-12-29T09:15:58.373Z,11.38
2022-12-29T09:30:55.227Z,11.41
2022-12-29T09:45:51.101Z,11.51
2022-12-29T10:00:51.277Z,11.93
2022-12-29T10:15:44.066Z,11.8
2022-12-29T10:30:40.374Z,12
2022-12-29T10:45:36.466Z,12.08
2022-12-29T11:15:29.020Z,12.34
2022-12-29T11:30:25.505Z,12.63
2022-12-29T11:45:21.824Z,12.26
2022-12-29T12:00:18.116Z,12.33
2022-12-29T12:15:14.622Z,12.27
2022-12-29T12:30:10.690Z,12.21
2022-12-29T12:45:06.787Z,12.48
2022-12-29T13:00:02.927Z,12.41
2022-12-29T13:14:59.400Z,12.14
2022-12-29T13:29:55.599Z,12.11
2022-12-29T13:44:51.736Z,12.23
2022-12-29T13:59:47.948Z,12.05
2022-12-29T14:14:44.466Z,12.07
2022-12-29T14:29:40.107Z,11.79
2022-12-29T14:44:36.253Z,11.54
2022-12-29T14:59:32.426Z,11.25
2022-12-29T15:14:28.380Z,11.27
2022-12-29T15:29:24.375Z,11.03
2022-12-29T15:44:20.694Z,10.69
2022-12-29T15:59:16.772Z,10.63
2022-12-29T16:14:12.815Z,10.2
2022-12-29T16:29:08.923Z,9.6
2022-12-29T16:44:04.801Z,9.24
2022-12-29T16:59:00.868Z,8.91
2022-12-29T17:13:56.410Z,8.92
2022-12-29T17:28:52.568Z,9.06
2022-12-29T17:43:48.617Z,8.92
2022-12-29T17:58:44.654Z,9.09
2022-12-29T18:13:46.200Z,9.1
2022-12-29T18:28:37.142Z,8.91
2022-12-29T18:43:33.610Z,8.97
2022-12-29T19:13:26.647Z,9.12
2022-12-29T19:28:22.788Z,9.16
2022-12-29T19:43:18.997Z,9.27
2022-12-29T19:58:15.460Z,9.24
2022-12-29T20:13:11.891Z,8.76
2022-12-29T20:28:07.402Z,8.56
2022-12-29T20:43:04.019Z,8.63
2022-12-29T21:12:56.449Z,7.59
2022-12-29T21:27:52.122Z,6.97
2022-12-29T21:42:48.223Z,6.4
2022-12-29T21:57:44.278Z,6.29
2022-12-29T22:12:39.937Z,6.75
2022-12-29T22:27:36.001Z,7.38
2022-12-29T22:42:32.091Z,6.32
2022-12-29T23:12:23.649Z,5.9
2022-12-29T23:27:20.111Z,6.4
2022-12-29T23:42:16.083Z,6.82
2022-12-29T23:57:12.572Z,6.74
